Time;durP1;ratioP1;P1;durP2;ratioP2;P2;SDS_P1;SDS_P2;PMS_P1;PMS_P2;Temp;Humidity;BMP_temperature;BMP_pressure;BME280_temperature;BME280_humidity;BME280_pressure;Samples;Min_cycle;Max_cycle;Signal;HPM_P1;HPM_P2
2022/05/22 00:00:50;;;;;;;6.17;3.33;;;16.30;61.90;;;19.00;49.17;101831.72;5026808;28;20206;-61
2022/05/22 00:03:19;;;;;;;7.53;3.50;;;16.20;61.90;;;18.98;49.09;101831.09;5003645;28;20221;-61
2022/05/22 00:05:45;;;;;;;10.83;3.40;;;16.30;62.20;;;18.97;48.97;101826.81;4933688;28;20234;-61
2022/05/22 00:10:50;;;;;;;7.40;3.20;;;16.20;62.10;;;18.97;49.27;101816.13;5172396;27;20958;-61
2022/05/22 00:13:16;;;;;;;8.67;3.93;;;16.20;62.40;;;18.97;49.27;101816.13;5149847;27;20195;-60
2022/05/22 00:16:36;;;;;;;8.00;3.27;;;16.20;62.50;;;18.94;49.31;101818.16;5127570;27;20233;-62
2022/05/22 00:18:29;;;;;;;7.37;3.73;;;16.20;62.40;;;18.94;49.41;101812.81;5142439;27;20202;-63
2022/05/22 00:20:58;;;;;;;6.70;3.63;;;16.20;62.50;;;18.94;49.43;101812.81;5104756;28;20499;-62
2022/05/22 00:23:25;;;;;;;7.17;2.70;;;16.20;62.60;;;18.96;49.41;101814.47;5080584;28;20193;-63
2022/05/22 00:25:58;;;;;;;9.33;4.27;;;16.20;62.60;;;18.93;49.28;101795.19;5098149;28;20207;-62
2022/05/22 00:28:25;;;;;;;6.60;3.30;;;16.20;62.60;;;18.92;49.13;101788.19;5026786;28;20207;-63
2022/05/22 00:31:06;;;;;;;6.73;3.43;;;16.20;62.70;;;18.89;49.57;101788.63;4657088;30;20212;-62
2022/05/22 00:36:11;;;;;;;9.07;3.57;;;16.10;62.60;;;18.87;49.60;101798.63;5156069;27;20636;-61
2022/05/22 00:38:38;;;;;;;8.00;3.23;;;16.10;62.80;;;18.84;49.45;101799.06;5130404;28;20198;-60
2022/05/22 00:41:06;;;;;;;6.43;3.13;;;16.00;62.70;;;18.81;49.60;101788.78;5129941;28;20195;-60
2022/05/22 00:43:37;;;;;;;8.23;3.30;;;16.00;62.90;;;18.82;49.68;101793.13;5127679;28;20294;-60
2022/05/22 00:46:06;;;;;;;8.77;3.20;;;16.00;62.80;;;18.80;49.57;101791.69;5110227;28;20224;-60
2022/05/22 00:48:35;;;;;;;9.03;3.50;;;16.00;62.90;;;18.77;49.73;101784.91;5092796;28;20663;-63
2022/05/22 00:51:09;;;;;;;7.07;3.33;;;16.00;63.10;;;18.76;49.81;101783.25;5104822;28;20275;-60
2022/05/22 00:57:06;;;;;;;7.73;3.33;;;16.00;63.10;;;18.70;49.83;101773.41;5172553;27;20634;-62
2022/05/22 00:59:41;;;;;;;6.50;3.07;;;16.00;63.10;;;18.68;49.98;101775.44;5132288;27;20230;-62
2022/05/22 01:02:08;;;;;;;7.93;3.00;;;16.00;63.30;;;18.71;50.01;101767.00;5150129;27;20250;-62
2022/05/22 01:04:36;;;;;;;6.20;2.90;;;16.00;63.30;;;18.72;50.07;101776.69;5121397;27;20206;-62
2022/05/22 01:07:07;;;;;;;7.67;3.67;;;16.00;63.50;;;18.72;49.61;101766.00;5081737;28;20201;-60
2022/05/22 01:09:35;;;;;;;7.03;3.03;;;16.00;63.40;;;18.73;50.00;101756.97;5099096;28;20222;-62
2022/05/22 01:12:09;;;;;;;5.70;3.33;;;16.00;63.40;;;18.73;49.69;101759.63;5066544;28;20222;-60
2022/05/22 01:14:53;;;;;;;7.00;3.17;;;16.00;63.40;;;18.73;50.08;101759.63;4991212;28;20228;-62
2022/05/22 01:21:17;;;;;;;9.23;4.00;;;16.00;63.30;;;18.62;50.36;101770.91;5172612;27;20650;-63
2022/05/22 01:23:45;;;;;;;8.37;3.60;;;16.00;63.80;;;18.63;50.36;101772.56;5119140;28;20206;-61
2022/05/22 01:26:13;;;;;;;6.37;3.60;;;16.00;63.70;;;18.68;50.42;101771.94;5109119;27;20547;-62
2022/05/22 01:28:40;;;;;;;5.13;2.70;;;16.00;63.80;;;18.68;50.50;101771.94;5099151;28;20196;-61
2022/05/22 01:31:09;;;;;;;6.67;2.97;;;16.00;63.80;;;18.70;50.50;101773.41;5042360;28;20208;-62
2022/05/22 01:33:38;;;;;;;9.63;4.27;;;16.00;63.80;;;18.70;50.43;101776.06;4997131;28;20665;-63
2022/05/22 01:36:07;;;;;;;6.40;3.67;;;16.00;63.80;;;18.69;50.24;101770.91;5019910;28;20221;-61
2022/05/22 01:41:24;;;;;;;9.43;4.17;;;16.00;63.90;;;18.66;50.50;101766.78;5171595;27;20985;-60
2022/05/22 01:43:51;;;;;;;6.57;3.60;;;15.90;64.00;;;18.60;50.75;101756.94;5146696;27;20183;-60
2022/05/22 01:46:18;;;;;;;9.73;4.30;;;15.90;64.50;;;18.55;50.75;101764.72;5150158;27;20214;-62
2022/05/22 01:48:45;;;;;;;13.47;4.80;;;15.80;64.50;;;18.51;51.04;101762.66;5149888;27;20194;-60
2022/05/22 01:51:11;;;;;;;10.60;3.77;;;15.80;64.80;;;18.47;51.48;101758.78;5132051;27;20215;-60
2022/05/22 01:53:38;;;;;;;9.80;4.57;;;15.70;65.10;;;18.42;51.14;101764.69;5052895;28;20280;-61
2022/05/22 01:56:05;;;;;;;11.83;4.23;;;15.70;65.20;;;18.35;51.25;101763.81;5016639;28;20300;-60
2022/05/22 02:01:20;;;;;;;10.17;3.93;;;15.60;65.30;;;18.28;51.60;101757.63;5171904;27;20637;-60
2022/05/22 02:03:47;;;;;;;6.23;3.57;;;15.50;65.70;;;18.22;51.91;101758.44;5148277;27;20213;-60
2022/05/22 02:06:13;;;;;;;10.33;4.23;;;15.50;66.20;;;18.21;51.81;101756.78;5150173;27;20215;-61
2022/05/22 02:08:42;;;;;;;9.53;4.37;;;15.50;66.10;;;18.18;52.13;101752.66;5150214;27;20638;-61
2022/05/22 02:11:09;;;;;;;8.83;4.73;;;15.40;66.10;;;18.14;52.11;101755.94;5136339;27;20283;-63
2022/05/22 02:13:39;;;;;;;10.60;5.03;;;15.40;66.60;;;18.11;52.10;101751.03;5045589;28;20195;-62
2022/05/22 02:16:06;;;;;;;9.17;4.70;;;15.40;66.60;;;18.07;52.24;101757.75;4969481;28;20218;-62
2022/05/22 02:18:34;;;;;;;11.03;4.80;;;15.30;66.80;;;18.02;52.58;101770.84;4921380;28;20199;-58
2022/05/22 02:21:00;;;;;;;10.17;5.07;;;15.20;66.90;;;17.96;52.62;101766.31;4932716;28;20218;-60
2022/05/22 02:26:10;;;;;;;9.37;4.87;;;15.20;68.00;;;17.84;53.12;101765.22;5157386;27;21143;-61
2022/05/22 02:28:38;;;;;;;12.90;5.63;;;15.10;67.90;;;17.81;53.24;101774.44;5111604;28;20196;-61
2022/05/22 02:31:07;;;;;;;7.93;4.67;;;15.00;68.10;;;17.77;53.48;101767.84;5127195;27;20207;-61
2022/05/22 02:33:35;;;;;;;11.20;4.60;;;15.00;68.30;;;17.75;53.75;101777.06;5104000;28;20193;-62
2022/05/22 02:36:06;;;;;;;11.40;5.20;;;15.00;68.80;;;17.74;53.63;101775.41;5080713;28;20222;-61
2022/05/22 02:38:33;;;;;;;11.27;4.97;;;15.00;68.70;;;17.71;53.85;101770.50;5048370;28;20193;-61
2022/05/22 02:40:59;;;;;;;8.93;4.53;;;14.90;68.90;;;17.66;53.84;101779.06;5073896;28;20628;-61
2022/05/22 02:43:27;;;;;;;8.87;4.57;;;14.90;69.10;;;17.64;54.22;101775.75;5118674;28;20225;-62
2022/05/22 02:45:54;;;;;;;9.03;4.97;;;14.90;69.20;;;17.64;54.19;101773.09;5099123;28;20246;-61
2022/05/22 02:48:20;;;;;;;10.03;4.73;;;14.90;69.20;;;17.64;54.07;101774.94;4938731;28;20205;-62
2022/05/22 02:50:59;;;;;;;11.10;4.50;;;14.90;69.20;;;17.65;53.91;101765.94;5173239;27;20626;-61
2022/05/22 02:53:25;;;;;;;7.97;4.10;;;14.90;69.40;;;17.64;54.23;101772.28;5151483;27;20210;-60
2022/05/22 02:55:52;;;;;;;10.57;5.07;;;14.80;69.40;;;17.63;53.92;101767.97;5148366;27;20241;-62
2022/05/22 02:58:19;;;;;;;8.73;5.07;;;14.80;69.40;;;17.61;53.91;101770.00;5134711;27;20246;-62
2022/05/22 03:00:47;;;;;;;10.13;5.27;;;14.80;69.40;;;17.55;53.98;101769.75;5126452;27;20203;-62
2022/05/22 03:03:14;;;;;;;11.97;5.13;;;14.80;69.40;;;17.53;54.30;101774.47;5078778;28;20220;-60
2022/05/22 03:12:24;;;;;;;9.03;4.93;;;14.70;69.50;;;17.43;54.36;101784.59;5172315;27;20650;-62
2022/05/22 03:14:54;;;;;;;8.87;4.33;;;14.70;69.60;;;17.44;54.33;101778.28;5144734;27;20211;-59
2022/05/22 03:17:21;;;;;;;11.03;5.20;;;14.70;69.50;;;17.44;54.48;101764.97;5148066;27;20195;-59
2022/05/22 03:19:48;;;;;;;6.33;4.70;;;14.70;69.50;;;17.42;54.58;101764.31;5142336;27;20215;-62
2022/05/22 03:22:15;;;;;;;7.27;5.00;;;14.70;69.90;;;17.42;54.44;101761.66;5111010;28;20287;-61
2022/05/22 03:24:41;;;;;;;7.90;4.67;;;14.70;69.70;;;17.44;54.21;101750.81;5074661;28;20259;-61
2022/05/22 03:27:11;;;;;;;13.30;5.47;;;14.70;69.70;;;17.43;54.37;101742.00;5040685;28;20623;-61
2022/05/22 03:29:41;;;;;;;11.47;5.53;;;14.70;69.70;;;17.44;54.13;101743.66;4884697;28;20211;-61
2022/05/22 03:32:07;;;;;;;15.93;5.43;;;14.70;69.60;;;17.42;54.51;101750.19;4759400;29;20241;-61
2022/05/22 03:37:14;;;;;;;7.70;4.50;;;14.60;69.80;;;17.41;54.51;101752.03;5164948;27;20631;-59
2022/05/22 03:39:41;;;;;;;9.23;4.80;;;14.60;69.80;;;17.41;54.51;101744.03;5133902;27;20214;-60
2022/05/22 03:42:08;;;;;;;8.77;4.33;;;14.60;69.80;;;17.43;54.36;101741.19;5150486;27;20215;-63
2022/05/22 03:44:36;;;;;;;10.13;5.20;;;14.70;69.70;;;17.43;54.37;101747.34;5133187;27;20701;-60
2022/05/22 03:47:04;;;;;;;7.63;4.50;;;14.70;69.80;;;17.42;54.16;101740.34;5098900;28;20242;-63
2022/05/22 03:49:31;;;;;;;10.00;4.97;;;14.60;69.70;;;17.42;54.50;101745.66;5103232;28;20192;-65
2022/05/22 03:51:58;;;;;;;6.23;4.67;;;14.60;70.10;;;17.43;54.40;101747.34;5117608;28;20658;-62
2022/05/22 03:54:25;;;;;;;10.93;4.97;;;14.70;69.80;;;17.43;54.30;101752.66;5103342;28;20713;-61
2022/05/22 03:56:53;;;;;;;13.87;5.13;;;14.60;69.60;;;17.39;54.27;101751.41;5100633;28;20667;-61
2022/05/22 04:01:57;;;;;;;7.43;4.13;;;14.60;69.60;;;17.33;54.02;101752.16;5172268;27;20641;-60
2022/05/22 04:04:23;;;;;;;10.17;4.57;;;14.50;69.80;;;17.34;54.49;101748.50;5145289;27;20222;-60
2022/05/22 04:06:50;;;;;;;8.60;4.50;;;14.50;70.00;;;17.35;54.45;101744.00;5147482;27;20194;-61
2022/05/22 04:09:18;;;;;;;10.20;4.83;;;14.50;70.00;;;17.36;54.29;101746.47;5149382;27;20269;-60
2022/05/22 04:11:45;;;;;;;9.63;4.27;;;14.50;69.90;;;17.36;54.20;101746.47;5113033;27;20612;-63
2022/05/22 04:14:11;;;;;;;10.50;4.90;;;14.50;69.70;;;17.35;54.03;101747.47;5098398;27;20234;-60
2022/05/22 04:16:38;;;;;;;9.60;5.03;;;14.50;69.90;;;17.36;54.14;101751.78;5042634;28;20692;-60
2022/05/22 04:19:05;;;;;;;9.17;4.93;;;14.50;69.70;;;17.33;54.18;101746.84;5043742;28;22006;-62
2022/05/22 04:21:32;;;;;;;9.07;4.50;;;14.50;70.00;;;17.32;54.42;101753.19;5040358;28;20227;-61
2022/05/22 04:26:36;;;;;;;8.63;4.70;;;14.50;70.10;;;17.29;54.20;101756.25;5194361;27;20633;-63
2022/05/22 04:29:03;;;;;;;10.97;4.90;;;14.40;70.10;;;17.28;54.37;101759.91;5158820;27;20212;-62
2022/05/22 04:31:29;;;;;;;7.97;5.03;;;14.40;70.30;;;17.28;54.52;101759.91;5168022;27;20201;-63
2022/05/22 04:33:56;;;;;;;7.80;4.47;;;14.40;70.30;;;17.29;54.39;101766.88;5166429;27;20200;-63
2022/05/22 04:36:23;;;;;;;7.93;4.60;;;14.40;70.40;;;17.30;54.13;101767.72;5130143;27;20211;-62
2022/05/22 04:38:50;;;;;;;7.80;4.80;;;14.40;70.20;;;17.30;54.27;101765.88;5100500;28;20200;-62
2022/05/22 04:41:17;;;;;;;15.00;4.97;;;14.40;70.20;;;17.32;53.99;101776.31;5073286;28;20197;-61
2022/05/22 04:47:02;;;;;;;7.90;4.70;;;14.40;69.90;;;17.28;54.12;101765.22;5158368;27;20642;-62
2022/05/22 04:49:29;;;;;;;9.83;4.57;;;14.40;69.90;;;17.29;53.92;101756.25;5131625;27;20265;-61
2022/05/22 04:51:58;;;;;;;9.77;4.67;;;14.40;69.70;;;17.30;54.00;101747.25;5131191;27;20569;-61
2022/05/22 04:54:24;;;;;;;11.63;4.93;;;14.50;69.90;;;17.31;53.97;101748.88;5135738;27;20192;-62
2022/05/22 04:56:56;;;;;;;7.17;4.43;;;14.50;69.70;;;17.32;53.62;101750.53;5085453;28;20253;-64
2022/05/22 04:59:22;;;;;;;6.17;4.37;;;14.50;69.60;;;17.34;53.79;101751.16;5086978;28;20631;-61
2022/05/22 05:01:49;;;;;;;9.17;4.50;;;14.50;69.40;;;17.34;53.85;101753.81;5051208;28;20639;-62
2022/05/22 05:08:13;;;;;;;9.97;4.17;;;14.50;69.50;;;17.29;53.85;101745.59;5172472;27;20641;-61
2022/05/22 05:10:39;;;;;;;4.83;4.00;;;14.50;69.50;;;17.32;53.98;101752.38;5151409;27;20255;-61
2022/05/22 05:13:06;;;;;;;9.73;4.07;;;14.50;69.50;;;17.36;53.53;101750.97;5150671;27;20662;-63
2022/05/22 05:15:32;;;;;;;10.40;4.37;;;14.50;69.50;;;17.38;53.76;101739.09;5138921;27;20223;-63
2022/05/22 05:17:59;;;;;;;13.90;4.00;;;14.50;69.70;;;17.43;53.24;101752.66;5097242;28;20552;-62
2022/05/22 05:20:27;;;;;;;7.27;4.10;;;14.50;69.20;;;17.46;53.73;101754.09;4996496;28;20223;-61
2022/05/22 05:22:53;;;;;;;9.07;4.60;;;14.60;69.40;;;17.49;53.38;101757.22;5018304;28;20196;-61
2022/05/22 05:25:21;;;;;;;7.53;4.10;;;14.60;70.00;;;17.52;53.17;101751.50;4971841;28;20228;-63
2022/05/22 05:27:51;;;;;;;7.37;4.17;;;14.60;68.90;;;17.56;53.31;101752.78;4988933;28;20232;-62
2022/05/22 05:32:56;;;;;;;11.50;4.83;;;14.70;68.90;;;17.70;52.67;101768.84;5172787;27;20633;-63
2022/05/22 05:35:23;;;;;;;7.43;3.47;;;14.80;68.80;;;17.77;52.92;101769.69;5122292;27;20277;-60
2022/05/22 05:37:51;;;;;;;9.73;3.90;;;14.80;68.70;;;17.84;52.56;101759.91;5130085;28;20207;-62
2022/05/22 05:40:18;;;;;;;9.20;3.80;;;14.90;68.40;;;17.91;52.68;101755.44;5113827;28;20199;-63
2022/05/22 05:42:44;;;;;;;10.87;4.20;;;15.00;68.30;;;17.97;52.22;101750.13;5090842;28;20205;-60
2022/05/22 05:45:13;;;;;;;5.80;3.67;;;15.00;68.00;;;18.07;52.17;101752.41;5092795;28;20252;-62
2022/05/22 05:47:43;;;;;;;7.10;3.37;;;15.10;67.90;;;18.14;51.80;101751.44;5047889;28;20204;-60
2022/05/22 05:52:49;;;;;;;4.93;3.17;;;15.20;67.70;;;18.28;51.61;101745.13;5156770;27;20642;-62
2022/05/22 05:55:17;;;;;;;7.53;3.90;;;15.30;67.10;;;18.36;51.34;101738.81;5116560;27;20717;-61
2022/05/22 05:58:04;;;;;;;6.37;3.17;;;15.40;66.90;;;18.42;50.99;101734.53;5113458;27;20191;-61
2022/05/22 06:00:51;;;;;;;6.47;3.20;;;15.40;66.60;;;18.46;51.16;101733.94;5069088;28;20197;-61
2022/05/22 06:03:17;;;;;;;8.97;3.80;;;15.50;66.50;;;18.54;51.00;101731.06;5038295;28;20217;-61
2022/05/22 06:05:48;;;;;;;13.67;3.67;;;15.60;67.20;;;18.63;50.71;101734.38;4903510;29;20219;-60
2022/05/22 06:08:15;;;;;;;10.43;3.80;;;15.60;66.10;;;18.72;50.54;101736.66;4868671;29;20607;-61
2022/05/22 06:10:42;;;;;;;5.97;3.47;;;15.70;66.00;;;18.78;50.42;101735.84;4900826;29;20222;-60
2022/05/22 06:13:23;;;;;;;9.67;3.87;;;15.80;65.80;;;18.85;50.25;101739.31;4856744;29;20242;-61
2022/05/22 06:18:27;;;;;;;8.57;4.13;;;15.80;65.50;;;19.01;50.07;101737.28;5171245;27;20629;-62
2022/05/22 06:20:54;;;;;;;11.00;3.57;;;16.00;65.30;;;19.07;49.77;101741.81;5149134;27;20704;-59
2022/05/22 06:23:20;;;;;;;7.77;3.80;;;16.10;65.20;;;19.14;49.75;101742.63;5150203;27;20210;-60
2022/05/22 06:25:47;;;;;;;8.43;3.83;;;16.10;65.00;;;19.23;49.69;101736.06;5122576;27;20234;-61
2022/05/22 06:28:15;;;;;;;8.57;3.63;;;16.20;65.00;;;19.33;49.25;101731.09;5095713;28;20224;-62
2022/05/22 06:30:42;;;;;;;7.17;4.53;;;16.30;64.80;;;19.41;49.13;101728.25;5036968;28;20296;-62
2022/05/22 06:33:12;;;;;;;8.90;4.43;;;16.40;64.40;;;19.47;48.97;101732.75;5037684;28;20196;-63
2022/05/22 06:36:08;;;;;;;9.07;3.70;;;16.40;64.10;;;19.51;48.55;101739.34;5083319;28;20771;-62
2022/05/22 06:43:53;;;;;;;9.10;3.70;;;16.60;63.30;;;19.75;47.62;101735.19;5152528;27;20734;-62
2022/05/22 06:46:25;;;;;;;10.97;3.83;;;16.70;62.10;;;19.81;47.64;101743.16;5114268;28;20222;-62
2022/05/22 06:48:52;;;;;;;6.90;3.17;;;16.70;62.00;;;19.87;47.32;101739.63;5094277;28;20271;-62
2022/05/22 06:51:19;;;;;;;8.00;3.27;;;16.80;62.10;;;19.93;47.38;101733.47;5121122;28;20196;-61
2022/05/22 06:53:46;;;;;;;10.43;4.00;;;16.90;62.10;;;20.04;46.85;101732.78;5103200;28;20213;-61
2022/05/22 06:56:12;;;;;;;6.77;3.60;;;17.00;61.20;;;20.09;46.53;101743.69;5086714;28;20218;-62
2022/05/22 06:58:42;;;;;;;6.33;3.70;;;17.10;60.70;;;20.13;46.20;101744.09;5101524;28;20215;-63
2022/05/22 07:01:10;;;;;;;8.93;4.97;;;17.10;60.00;;;20.19;45.98;101735.19;5063533;28;20665;-62
2022/05/22 07:03:50;;;;;;;8.03;4.07;;;17.20;59.90;;;20.25;46.04;101737.88;4815091;29;20213;-62
2022/05/22 07:08:55;;;;;;;10.63;3.13;;;17.30;59.90;;;20.46;45.52;101741.28;5172099;27;20618;-63
2022/05/22 07:11:40;;;;;;;7.13;3.37;;;17.40;58.90;;;20.54;44.89;101743.72;5146438;27;20646;-62
2022/05/22 07:14:08;;;;;;;6.60;3.13;;;17.50;58.30;;;20.54;43.86;101741.81;5122179;27;20190;-62
2022/05/22 07:16:36;;;;;;;6.50;2.87;;;17.50;57.30;;;20.54;44.26;101735.69;5130301;27;20310;-61
2022/05/22 07:19:04;;;;;;;5.20;3.17;;;17.50;57.60;;;20.60;44.06;101742.84;5045955;28;20200;-62
2022/05/22 07:21:31;;;;;;;3.17;2.00;;;17.60;57.90;;;20.66;43.32;101731.25;4987194;28;20230;-61
2022/05/22 07:24:02;;;;;;;4.90;2.43;;;17.60;55.90;;;20.72;43.41;101733.06;4870005;28;20205;-62
2022/05/22 07:30:21;;;;;;;9.07;2.87;;;17.70;56.50;;;20.90;42.91;101730.47;5171312;27;20641;-61
2022/05/22 07:32:47;;;;;;;5.20;2.70;;;17.90;56.40;;;21.06;42.99;101719.22;5141344;27;20209;-62
2022/05/22 07:35:14;;;;;;;6.10;2.40;;;18.00;55.90;;;21.15;41.88;101731.31;5144506;27;20286;-61
2022/05/22 07:37:41;;;;;;;4.50;2.47;;;18.10;55.40;;;21.17;41.44;101736.47;5166561;27;20208;-60
2022/05/22 07:40:09;;;;;;;6.40;2.40;;;18.10;54.90;;;21.16;41.24;101730.28;5146986;27;20542;-63
2022/05/22 07:42:36;;;;;;;3.77;2.07;;;18.10;54.20;;;21.19;41.97;101724.50;5093114;28;20532;-62
2022/05/22 07:45:04;;;;;;;6.07;2.47;;;18.20;54.50;;;21.34;41.74;101724.97;5104993;28;20249;-63
2022/05/22 07:47:31;;;;;;;7.70;2.73;;;18.30;54.70;;;21.56;41.17;101725.38;5078944;28;20198;-60
2022/05/22 07:55:21;;;;;;;5.57;2.27;;;18.50;54.30;;;21.82;38.16;101718.91;5163501;27;20910;-59
2022/05/22 07:57:49;;;;;;;7.60;2.40;;;18.60;50.30;;;21.83;38.42;101715.16;5130278;28;20200;-60
2022/05/22 08:00:20;;;;;;;5.57;2.50;;;18.60;50.80;;;21.89;38.87;101711.63;5128971;28;20269;-61
2022/05/22 08:02:48;;;;;;;3.63;2.03;;;18.70;51.30;;;22.21;38.60;101707.69;5115936;28;20199;-60
2022/05/22 08:05:18;;;;;;;6.53;1.97;;;18.80;51.40;;;23.36;36.50;101707.13;5107094;28;20213;-63
2022/05/22 08:07:45;;;;;;;4.87;2.10;;;19.10;50.20;;;24.76;34.60;101702.06;5071381;28;20205;-62
2022/05/22 08:10:15;;;;;;;2.90;1.50;;;19.60;50.10;;;26.29;31.93;101703.94;5064697;28;20280;-61
2022/05/22 08:14:15;;;;;;;3.50;1.67;;;20.40;47.50;;;27.93;28.87;101705.34;5041972;28;20387;-62
2022/05/22 08:16:41;;;;;;;3.10;1.60;;;21.20;43.30;;;28.42;27.26;101704.97;4761285;29;20226;-62
2022/05/22 08:21:32;;;;;;;3.70;1.60;;;22.20;41.90;;;30.47;25.36;101710.13;5208708;27;20384;-62
2022/05/22 08:23:59;;;;;;;4.00;1.50;;;23.50;40.20;;;31.70;24.44;101712.22;5179457;27;20194;-62
2022/05/22 08:26:27;;;;;;;2.97;1.43;;;24.30;38.60;;;32.93;23.03;101698.09;5153986;27;20610;-64
2022/05/22 08:28:54;;;;;;;3.33;1.20;;;25.10;38.30;;;34.03;20.73;101710.66;5165326;27;20201;-61
2022/05/22 08:31:21;;;;;;;2.47;1.07;;;25.90;33.30;;;34.83;19.38;101707.16;5183397;27;20191;-61
2022/05/22 08:33:48;;;;;;;1.40;1.23;;;26.60;30.50;;;35.29;19.36;101704.81;5140347;27;20199;-61
2022/05/22 08:36:15;;;;;;;1.27;1.00;;;27.30;30.20;;;35.83;18.42;101698.84;5122734;28;20207;-60
2022/05/22 08:38:42;;;;;;;1.87;1.10;;;28.00;30.10;;;36.54;17.96;101696.63;5124367;28;20203;-62
2022/05/22 08:41:09;;;;;;;2.13;1.40;;;28.50;28.00;;;37.15;17.20;101685.19;5114848;28;20211;-62
2022/05/22 08:46:18;;;;;;;3.77;1.43;;;29.00;27.50;;;38.31;16.19;101682.66;5156149;27;20747;-60
2022/05/22 08:48:53;;;;;;;2.30;1.40;;;29.80;26.60;;;38.88;15.44;101693.72;5112241;28;20191;-62
2022/05/22 08:51:28;;;;;;;1.60;1.47;;;30.20;25.50;;;38.86;15.18;101690.53;5122615;28;20196;-61
2022/05/22 08:54:05;;;;;;;2.40;1.27;;;30.40;24.80;;;37.84;15.83;101701.31;5085605;28;20462;-59
2022/05/22 08:59:29;;;;;;;2.67;1.50;;;30.00;23.50;;;34.58;17.43;101700.38;4911925;28;20210;-58
2022/05/22 09:02:11;;;;;;;2.37;1.40;;;29.30;24.70;;;34.39;18.07;101700.56;4928952;28;20203;-62
2022/05/22 09:08:16;;;;;;;4.73;1.77;;;28.80;26.00;;;35.58;17.06;101691.41;5171957;27;20641;-61
2022/05/22 09:11:01;;;;;;;2.47;1.70;;;28.60;26.50;;;34.78;17.65;101693.59;5117388;27;20207;-63
2022/05/22 09:13:33;;;;;;;3.97;1.37;;;28.40;26.10;;;33.50;18.18;101687.75;5102848;28;20195;-60
2022/05/22 09:16:18;;;;;;;3.63;1.30;;;28.10;26.20;;;32.00;20.52;101690.03;5131294;27;20237;-62
2022/05/22 09:18:54;;;;;;;1.83;1.40;;;27.60;27.20;;;30.73;21.93;101698.78;5090776;27;20588;-62
2022/05/22 09:21:33;;;;;;;3.60;1.97;;;27.00;28.20;;;30.48;21.71;101690.81;5035161;28;20241;-62
2022/05/22 09:24:04;;;;;;;2.27;1.30;;;26.50;28.50;;;30.00;22.22;101689.75;4945418;28;20211;-60
2022/05/22 09:26:33;;;;;;;3.13;2.20;;;26.00;28.90;;;29.43;22.73;101684.81;4837037;29;20223;-61
2022/05/22 09:31:49;;;;;;;2.67;1.50;;;25.60;29.20;;;31.01;22.27;101689.03;5161074;27;21178;-63
2022/05/22 09:34:31;;;;;;;4.87;1.80;;;25.30;31.30;;;31.06;22.32;101677.28;5132904;27;20611;-62
2022/05/22 09:37:17;;;;;;;2.47;1.77;;;25.50;30.90;;;30.51;22.19;101679.38;5084832;28;20221;-62
2022/05/22 09:40:10;;;;;;;2.13;1.57;;;25.50;31.10;;;29.78;23.43;101681.19;5106322;28;20203;-61
2022/05/22 09:43:16;;;;;;;2.40;1.33;;;25.30;31.10;;;28.97;24.21;101668.91;4906354;28;20207;-62
2022/05/22 09:46:01;;;;;;;3.80;2.20;;;25.00;31.50;;;28.94;24.46;101673.00;4721075;30;20264;-62
2022/05/22 09:52:48;;;;;;;4.40;1.80;;;24.60;32.00;;;31.04;22.38;101674.84;5171085;27;20629;-62
2022/05/22 09:55:32;;;;;;;2.17;1.27;;;24.80;31.80;;;33.00;20.63;101673.94;5121896;28;20341;-61
2022/05/22 09:58:35;;;;;;;2.50;1.77;;;25.30;32.00;;;34.75;18.79;101666.84;5088726;28;20309;-62
2022/05/22 10:01:13;;;;;;;3.60;2.00;;;26.10;30.00;;;36.16;17.80;101673.75;5083366;28;20195;-61
2022/05/22 10:04:01;;;;;;;4.47;1.83;;;27.00;29.70;;;37.47;15.85;101666.41;4963875;28;20276;-63
2022/05/22 10:06:41;;;;;;;2.87;2.37;;;27.80;28.00;;;38.62;15.53;101671.97;4832148;29;20233;-60
2022/05/22 10:09:24;;;;;;;4.33;1.83;;;28.60;27.50;;;39.30;15.12;101666.81;4772088;29;20204;-64
2022/05/22 10:11:51;;;;;;;2.53;1.87;;;29.20;26.50;;;38.55;14.96;101667.03;4622575;30;20756;-63
2022/05/22 10:17:14;;;;;;;2.87;1.57;;;29.60;26.20;;;35.25;17.47;101660.81;5171587;27;20626;-62
2022/05/22 10:19:50;;;;;;;2.93;1.73;;;29.20;25.70;;;35.23;17.67;101673.22;5132340;27;20269;-61
2022/05/22 10:22:27;;;;;;;2.33;1.70;;;28.90;26.50;;;35.29;17.65;101667.28;5120929;28;20199;-61
2022/05/22 10:25:15;;;;;;;2.50;1.57;;;28.80;26.60;;;35.13;17.84;101668.03;5081840;28;20673;-62
2022/05/22 10:27:55;;;;;;;2.17;1.50;;;28.70;26.50;;;35.90;16.95;101659.97;5009860;28;20208;-61
2022/05/22 10:30:33;;;;;;;1.97;1.50;;;28.70;26.60;;;37.09;16.14;101656.25;4902226;29;20199;-62
2022/05/22 10:33:09;;;;;;;2.20;1.53;;;28.90;26.20;;;38.00;15.53;101663.81;4842341;29;20272;-61
2022/05/22 10:36:51;;;;;;;1.77;1.50;;;29.30;25.90;;;39.05;14.89;101660.47;4842040;29;20704;-61
2022/05/22 10:45:05;;;;;;;2.27;1.93;;;30.60;24.40;;;37.56;15.20;101642.47;5099754;28;20294;-61
2022/05/22 10:47:34;;;;;;;2.90;2.00;;;30.50;24.10;;;36.70;16.56;101644.78;5111570;28;20191;-60
2022/05/22 10:50:15;;;;;;;4.63;1.90;;;30.30;24.50;;;35.76;16.79;101646.44;5115842;28;20198;-62
2022/05/22 10:52:42;;;;;;;3.40;1.60;;;30.10;24.50;;;34.92;17.26;101645.03;5032806;28;20203;-62
2022/05/22 10:55:31;;;;;;;2.93;1.30;;;29.60;24.70;;;33.96;18.40;101640.03;5049366;28;20215;-61
2022/05/22 10:58:01;;;;;;;2.80;1.30;;;29.20;25.10;;;33.17;18.79;101637.91;4853449;29;20499;-61
2022/05/22 11:00:28;;;;;;;2.87;1.80;;;28.60;25.40;;;32.53;19.85;101638.81;4695206;30;20235;-62
2022/05/22 11:05:33;;;;;;;2.63;2.10;;;28.30;26.10;;;31.17;20.97;101640.69;5161133;27;21146;-61
2022/05/22 11:07:59;;;;;;;2.97;1.83;;;27.50;26.70;;;30.58;21.31;101638.25;5129868;28;20255;-61
2022/05/22 11:10:33;;;;;;;2.27;1.50;;;27.00;27.00;;;30.19;21.47;101624.69;5129735;28;20205;-63
2022/05/22 11:13:08;;;;;;;4.43;1.77;;;26.60;27.70;;;30.02;21.56;101624.28;5114286;28;20209;-62
2022/05/22 11:15:37;;;;;;;2.83;1.80;;;26.20;28.20;;;29.95;21.99;101624.59;5068816;28;20213;-61
2022/05/22 11:18:07;;;;;;;4.33;1.90;;;26.10;28.90;;;30.15;22.48;101615.50;5075121;28;20282;-61
2022/05/22 11:20:44;;;;;;;3.63;1.93;;;25.90;29.20;;;30.40;22.21;101619.97;5015095;28;20198;-60
2022/05/22 11:23:26;;;;;;;3.57;1.97;;;25.90;29.70;;;30.38;22.53;101614.78;4852753;29;20348;-62
2022/05/22 11:25:52;;;;;;;5.03;1.90;;;25.80;29.90;;;30.28;22.42;101609.44;4675704;30;20271;-62
2022/05/22 11:31:26;;;;;;;5.77;2.00;;;25.80;29.80;;;29.61;22.87;101615.56;5151938;27;20666;-62
2022/05/22 11:34:15;;;;;;;4.60;1.90;;;25.60;29.90;;;29.19;23.39;101607.84;5093985;28;20269;-60
2022/05/22 11:37:01;;;;;;;4.17;1.63;;;25.40;30.20;;;28.97;24.05;101601.94;5073300;28;20512;-60
2022/05/22 11:39:57;;;;;;;6.80;2.90;;;25.30;30.40;;;28.82;24.10;101599.25;5015566;28;20249;-59
2022/05/22 11:42:32;;;;;;;4.00;2.07;;;25.10;30.90;;;28.66;24.09;101592.25;4870514;29;20208;-59
2022/05/22 11:45:33;;;;;;;2.37;1.60;;;24.90;31.10;;;28.38;24.05;101596.31;4827193;29;20225;-61
2022/05/22 11:48:33;;;;;;;4.27;1.97;;;24.70;31.10;;;28.17;24.55;101595.50;4683791;30;20266;-61
2022/05/22 11:51:19;;;;;;;4.60;1.67;;;24.60;31.50;;;28.14;24.90;101585.22;4499706;31;20229;-62
2022/05/22 11:56:56;;;;;;;4.27;1.60;;;24.40;31.80;;;28.22;24.54;101574.94;5154128;27;21151;-62
2022/05/22 11:59:52;;;;;;;3.43;1.90;;;24.50;32.00;;;28.26;24.33;101573.28;5082361;28;20192;-60
2022/05/22 12:02:33;;;;;;;2.13;1.30;;;24.50;31.20;;;28.26;24.32;101576.00;5077152;28;20205;-62
2022/05/22 12:05:42;;;;;;;2.50;1.60;;;24.50;31.40;;;28.27;24.99;101577.63;5071608;28;20203;-62
2022/05/22 12:09:03;;;;;;;3.37;1.60;;;24.50;32.00;;;28.26;25.38;101576.00;4876692;29;20221;-62
2022/05/22 12:11:39;;;;;;;3.40;1.60;;;24.60;32.70;;;28.32;25.41;101572.19;4677299;30;20220;-62
2022/05/22 12:15:31;;;;;;;2.43;1.97;;;24.70;32.70;;;28.10;25.43;101575.19;4678858;30;20236;-60